Portada
METAR-TAF:

METAR-TAF

Aeropuertos :

Morris Municipal Airport (James R. Washburn Field)

Morris, Illinois, Estados Unidos

latitud: 41-25-31N, longitud: 088-25-07W, altitud: 178 m

Observación

El informe se hizo hace 37 minutos, a las 19:15 UTC
Viento 11 kt del suroeste con ráfagas de 15 kt
Temperatura 33°C
Humedad 46%
Presión 1022 hPa
Visibilidad: 16.1 km
Nubes dispersas a una altura de 5000 ft

METAR: KC09 191915Z AUTO 22011G15KT 10SM SCT050 33/20 A3018 RMK AO2 T03300198

Hora: 14:52 (19:52 UTC)


TAF: falta

Observaciones y pronósticos meteorológicos de más de 4000 aeropuertos (mensajes METAR y TAF).

Los puntos amarillos y rojos representan las estaciones disponibles.

Ponga el ratón en el punto deseado para ver el nombre de la estación.

Haga clic para ver las observaciones y los pronósticos meteorológicos.

Para cambiar el mapa : haga clic en los botones verdes con una cruz de color negro para hacer un zoom, en el botón verde con un guión para alejar o en las flechas verdes para mapas adyacentes.


METAR-TAF: